Deep River, Iowa
Current Conditions -  °F | °C
As of 6:35 AM on Sunday 23 Nov 2014 (Local Time) from KGGI Reporting Station
Haze Haze  
Wind Chill: 10°   Ceiling: 400
Heat Index: 10°   Visibility: 4mi
Dew Point: 10°   Wind: 10mph
Humidity: 95%   Direction: 160°SSE
Pressure: 29.57"   Gusts: NA
Location:  41.58°N, 92.37°W
Report Text: KGGI 231235Z AUTO 16009KT 4SM BR OVC004 10/10 A2957 RMK AO2 T01020095
Loading
Personal Weather Stations






























Interactive Weather Map New forecast layout! Learn more

10-Day Weather Forecast

Advertisements
Track Severe Weather on mobile